TRA7Y EHEH-LGKO
Flight info
| Callsign | TRA7Y |
|---|---|
| Flight time | 3h 34m |
| Altitude | 35000 |
| Route | VELNI DCT ONUNE DCT GMH DCT NEGIX DCT DINKU DCT BESNI DCT LATLO DCT OBEDI DCT PODET DCT IRDIV DCT PODOB DCT MEDUX UM867 KOGAT DCT ERANA UL737 TSL DCT KOROS DCT MES UN139 LURUS L995 KOPAR |
| Aircraft | B738/M-SDE2E3FGHIRWXY/LB1 |
Departure
| Time | 2026-04-29 09:21 |
|---|---|
| Airport | Eindhoven Airport (EHEH) |
Arrival
| Time | 2026-04-29 12:56 |
|---|---|
| Airport | Kos International Airport "Ippokratis" (LGKO) |
| Time | Latitude | Longitude | Altitude | Speed | Heading |
|---|---|---|---|---|---|
| 2026-04-29 09:05 | 51.45720 | 5.38895 | 74 ft | 1 kts | 125° |
| 2026-04-29 09:06 | 51.45721 | 5.38892 | 74 ft | 2 kts | 124° |
| 2026-04-29 09:06 | 51.45731 | 5.38869 | 46 ft | 3 kts | 119° |
| 2026-04-29 09:06 | 51.45740 | 5.38840 | 75 ft | 3 kts | 109° |
| 2026-04-29 09:07 | 51.45745 | 5.38809 | 66 ft | 3 kts | 91° |
| 2026-04-29 09:07 | 51.45742 | 5.38781 | 63 ft | 3 kts | 51° |
| 2026-04-29 09:07 | 51.45738 | 5.38772 | 66 ft | 0 kts | 35° |
| 2026-04-29 09:12 | 51.45743 | 5.38779 | 67 ft | 3 kts | 35° |
| 2026-04-29 09:12 | 51.45761 | 5.38798 | 69 ft | 1 kts | 25° |
| 2026-04-29 09:12 | 51.45776 | 5.38791 | 70 ft | 4 kts | 339° |
| 2026-04-29 09:12 | 51.45812 | 5.38733 | 66 ft | 10 kts | 308° |
| 2026-04-29 09:13 | 51.45855 | 5.38634 | 74 ft | 11 kts | 305° |
| 2026-04-29 09:13 | 51.45899 | 5.38534 | 71 ft | 11 kts | 304° |
| 2026-04-29 09:13 | 51.45944 | 5.38437 | 76 ft | 11 kts | 307° |
| 2026-04-29 09:13 | 51.45990 | 5.38333 | 65 ft | 12 kts | 304° |
| 2026-04-29 09:14 | 51.45960 | 5.38233 | 70 ft | 11 kts | 215° |
| 2026-04-29 09:14 | 51.45897 | 5.38162 | 72 ft | 12 kts | 215° |
| 2026-04-29 09:14 | 51.45821 | 5.38078 | 74 ft | 15 kts | 214° |
| 2026-04-29 09:14 | 51.45726 | 5.37972 | 71 ft | 18 kts | 214° |
| 2026-04-29 09:15 | 51.45624 | 5.37857 | 71 ft | 18 kts | 214° |
| 2026-04-29 09:15 | 51.45524 | 5.37744 | 69 ft | 17 kts | 216° |
| 2026-04-29 09:15 | 51.45429 | 5.37638 | 71 ft | 17 kts | 215° |
| 2026-04-29 09:15 | 51.45333 | 5.37529 | 67 ft | 17 kts | 213° |
| 2026-04-29 09:16 | 51.45231 | 5.37418 | 72 ft | 18 kts | 214° |
| 2026-04-29 09:16 | 51.45131 | 5.37305 | 74 ft | 17 kts | 215° |
| 2026-04-29 09:16 | 51.45035 | 5.37197 | 71 ft | 17 kts | 215° |
| 2026-04-29 09:16 | 51.44942 | 5.37093 | 68 ft | 16 kts | 214° |
| 2026-04-29 09:17 | 51.44842 | 5.36982 | 74 ft | 18 kts | 214° |
| 2026-04-29 09:17 | 51.44731 | 5.36857 | 74 ft | 21 kts | 215° |
| 2026-04-29 09:17 | 51.44607 | 5.36717 | 70 ft | 23 kts | 214° |
| 2026-04-29 09:17 | 51.44472 | 5.36566 | 71 ft | 25 kts | 215° |
| 2026-04-29 09:18 | 51.44334 | 5.36412 | 69 ft | 23 kts | 216° |
| 2026-04-29 09:18 | 51.44214 | 5.36278 | 68 ft | 16 kts | 215° |
| 2026-04-29 09:18 | 51.44171 | 5.36271 | 74 ft | 3 kts | 142° |
| 2026-04-29 09:18 | 51.44169 | 5.36276 | 74 ft | 0 kts | 131° |
| 2026-04-29 09:20 | 51.44155 | 5.36302 | 71 ft | 6 kts | 129° |
| 2026-04-29 09:20 | 51.44129 | 5.36360 | 71 ft | 6 kts | 124° |
| 2026-04-29 09:20 | 51.44117 | 5.36435 | 74 ft | 8 kts | 82° |
| 2026-04-29 09:20 | 51.44166 | 5.36503 | 66 ft | 13 kts | 35° |
| 2026-04-29 09:21 | 51.44430 | 5.36798 | 66 ft | 82 kts | 35° |
| 2026-04-29 09:21 | 51.45079 | 5.37529 | 67 ft | 143 kts | 36° |
| 2026-04-29 09:21 | 51.45971 | 5.38514 | 549 ft | 159 kts | 38° |
| 2026-04-29 09:21 | 51.46901 | 5.39559 | 1298 ft | 169 kts | 39° |
| 2026-04-29 09:22 | 51.47843 | 5.40606 | 2254 ft | 161 kts | 41° |
| 2026-04-29 09:22 | 51.48830 | 5.41725 | 2610 ft | 189 kts | 42° |
| 2026-04-29 09:22 | 51.49941 | 5.43011 | 2965 ft | 203 kts | 41° |
| 2026-04-29 09:22 | 51.50977 | 5.44544 | 3491 ft | 202 kts | 63° |
| 2026-04-29 09:23 | 51.51381 | 5.46679 | 4064 ft | 203 kts | 85° |
| 2026-04-29 09:23 | 51.51246 | 5.48971 | 4558 ft | 212 kts | 107° |
| 2026-04-29 09:23 | 51.50732 | 5.51187 | 5271 ft | 212 kts | 107° |
| 2026-04-29 09:23 | 51.50265 | 5.53430 | 5846 ft | 215 kts | 105° |
| 2026-04-29 09:24 | 51.49807 | 5.55738 | 6475 ft | 220 kts | 104° |
| 2026-04-29 09:24 | 51.49371 | 5.58093 | 7133 ft | 225 kts | 101° |
| 2026-04-29 09:24 | 51.49011 | 5.60690 | 7378 ft | 248 kts | 99° |
| 2026-04-29 09:24 | 51.48647 | 5.63458 | 7924 ft | 258 kts | 99° |
| 2026-04-29 09:25 | 51.48406 | 5.66319 | 8614 ft | 260 kts | 85° |
| 2026-04-29 09:25 | 51.48617 | 5.69199 | 9371 ft | 262 kts | 81° |
| 2026-04-29 09:25 | 51.48870 | 5.72117 | 10097 ft | 266 kts | 81° |
| 2026-04-29 09:25 | 51.49126 | 5.75089 | 10714 ft | 274 kts | 81° |
| 2026-04-29 09:26 | 51.49394 | 5.78245 | 10908 ft | 297 kts | 81° |
| 2026-04-29 09:26 | 51.49678 | 5.81647 | 11089 ft | 319 kts | 81° |
| 2026-04-29 09:26 | 51.49975 | 5.85289 | 11325 ft | 337 kts | 81° |
| 2026-04-29 09:26 | 51.50280 | 5.89084 | 11722 ft | 348 kts | 82° |
| 2026-04-29 09:27 | 51.50485 | 5.91659 | 12085 ft | 352 kts | 82° |
| 2026-04-29 09:27 | 51.50798 | 5.95618 | 12827 ft | 353 kts | 82° |
| 2026-04-29 09:27 | 51.51106 | 5.99547 | 13474 ft | 358 kts | 82° |
| 2026-04-29 09:27 | 51.51419 | 6.03545 | 14135 ft | 360 kts | 82° |
| 2026-04-29 09:28 | 51.51731 | 6.07536 | 14764 ft | 363 kts | 82° |
| 2026-04-29 09:28 | 51.52041 | 6.11532 | 15303 ft | 367 kts | 82° |
| 2026-04-29 09:28 | 51.52357 | 6.15616 | 15865 ft | 371 kts | 82° |
| 2026-04-29 09:28 | 51.52636 | 6.19740 | 16475 ft | 373 kts | 86° |
| 2026-04-29 09:29 | 51.52328 | 6.23901 | 17085 ft | 378 kts | 100° |
| 2026-04-29 09:29 | 51.51211 | 6.32203 | 18227 ft | 385 kts | 99° |
| 2026-04-29 09:29 | 51.50664 | 6.36433 | 18735 ft | 388 kts | 98° |
| 2026-04-29 09:30 | 51.50121 | 6.40688 | 19227 ft | 390 kts | 98° |
| 2026-04-29 09:30 | 51.49577 | 6.44965 | 19742 ft | 392 kts | 98° |
| 2026-04-29 09:30 | 51.49030 | 6.49264 | 20253 ft | 394 kts | 98° |
| 2026-04-29 09:30 | 51.48481 | 6.53583 | 20716 ft | 397 kts | 98° |
| 2026-04-29 09:31 | 51.47927 | 6.57935 | 21171 ft | 400 kts | 98° |
| 2026-04-29 09:31 | 51.47367 | 6.62312 | 21598 ft | 403 kts | 98° |
| 2026-04-29 09:31 | 51.46800 | 6.66729 | 22029 ft | 406 kts | 98° |
| 2026-04-29 09:31 | 51.46228 | 6.71173 | 22520 ft | 407 kts | 98° |
| 2026-04-29 09:32 | 51.45653 | 6.75617 | 23036 ft | 408 kts | 98° |
| 2026-04-29 09:32 | 51.45074 | 6.80085 | 23480 ft | 410 kts | 98° |
| 2026-04-29 09:32 | 51.44490 | 6.84575 | 23899 ft | 412 kts | 98° |
| 2026-04-29 09:32 | 51.43901 | 6.89088 | 24257 ft | 414 kts | 98° |
| 2026-04-29 09:33 | 51.43308 | 6.93619 | 24625 ft | 416 kts | 98° |
| 2026-04-29 09:33 | 51.42713 | 6.98152 | 25002 ft | 417 kts | 98° |
| 2026-04-29 09:33 | 51.42113 | 7.02707 | 25358 ft | 418 kts | 98° |
| 2026-04-29 09:33 | 51.41510 | 7.07272 | 25698 ft | 420 kts | 98° |
| 2026-04-29 09:34 | 51.40902 | 7.11859 | 26029 ft | 422 kts | 98° |
| 2026-04-29 09:34 | 51.40298 | 7.16403 | 26353 ft | 423 kts | 98° |
| 2026-04-29 09:34 | 51.39674 | 7.21083 | 26702 ft | 425 kts | 98° |
| 2026-04-29 09:34 | 51.39063 | 7.25654 | 27021 ft | 426 kts | 98° |
| 2026-04-29 09:35 | 51.38439 | 7.30304 | 27306 ft | 428 kts | 98° |
| 2026-04-29 09:35 | 51.37811 | 7.34969 | 27605 ft | 430 kts | 98° |
| 2026-04-29 09:35 | 51.37048 | 7.39617 | 27887 ft | 436 kts | 104° |
| 2026-04-29 09:35 | 51.35866 | 7.44112 | 28175 ft | 442 kts | 112° |
| 2026-04-29 09:36 | 51.34265 | 7.48348 | 28485 ft | 448 kts | 118° |
| 2026-04-29 09:36 | 51.32518 | 7.52470 | 28943 ft | 446 kts | 118° |
| 2026-04-29 09:36 | 51.30774 | 7.56564 | 29410 ft | 444 kts | 118° |
| 2026-04-29 09:36 | 51.29053 | 7.60632 | 29838 ft | 441 kts | 117° |
| 2026-04-29 09:37 | 51.27345 | 7.64705 | 30238 ft | 440 kts | 117° |
| 2026-04-29 09:37 | 51.25649 | 7.68768 | 30591 ft | 439 kts | 117° |
| 2026-04-29 09:37 | 51.23957 | 7.72828 | 30866 ft | 439 kts | 117° |
| 2026-04-29 09:37 | 51.22265 | 7.76885 | 31125 ft | 440 kts | 117° |
| 2026-04-29 09:38 | 51.20565 | 7.80949 | 31376 ft | 440 kts | 117° |
| 2026-04-29 09:38 | 51.18802 | 7.84951 | 31644 ft | 445 kts | 123° |
| 2026-04-29 09:38 | 51.16640 | 7.88546 | 31874 ft | 454 kts | 132° |
| 2026-04-29 09:38 | 51.14129 | 7.91652 | 32163 ft | 460 kts | 140° |
| 2026-04-29 09:39 | 51.11318 | 7.94185 | 32426 ft | 466 kts | 146° |
| 2026-04-29 09:39 | 51.08426 | 7.96522 | 32687 ft | 467 kts | 147° |
| 2026-04-29 09:39 | 51.05520 | 7.98827 | 32945 ft | 467 kts | 148° |
| 2026-04-29 09:39 | 51.02617 | 8.01130 | 33254 ft | 465 kts | 148° |
| 2026-04-29 09:40 | 50.99728 | 8.03438 | 33535 ft | 464 kts | 148° |
| 2026-04-29 09:40 | 50.96845 | 8.05764 | 33775 ft | 466 kts | 148° |
| 2026-04-29 09:40 | 50.93949 | 8.08112 | 33894 ft | 468 kts | 148° |
| 2026-04-29 09:40 | 50.91051 | 8.10467 | 34147 ft | 468 kts | 148° |
| 2026-04-29 09:41 | 50.88158 | 8.12818 | 34429 ft | 466 kts | 148° |
| 2026-04-29 09:41 | 50.85276 | 8.15156 | 34608 ft | 466 kts | 149° |
| 2026-04-29 09:41 | 50.82383 | 8.17501 | 34755 ft | 468 kts | 149° |
| 2026-04-29 09:41 | 50.79483 | 8.19848 | 34913 ft | 468 kts | 149° |
| 2026-04-29 09:42 | 50.76586 | 8.22188 | 35113 ft | 468 kts | 149° |
| 2026-04-29 09:42 | 50.73687 | 8.24526 | 35280 ft | 468 kts | 149° |
| 2026-04-29 09:42 | 50.67856 | 8.29218 | 35306 ft | 471 kts | 149° |
| 2026-04-29 09:43 | 50.62041 | 8.33882 | 35311 ft | 467 kts | 149° |
| 2026-04-29 09:43 | 50.56300 | 8.38476 | 35303 ft | 465 kts | 150° |
| 2026-04-29 09:44 | 50.50505 | 8.43103 | 35320 ft | 464 kts | 151° |
| 2026-04-29 09:44 | 50.44743 | 8.47692 | 35325 ft | 470 kts | 151° |
| 2026-04-29 09:45 | 50.38929 | 8.52510 | 35311 ft | 473 kts | 144° |
| 2026-04-29 09:45 | 50.34018 | 8.59238 | 35313 ft | 469 kts | 130° |
| 2026-04-29 09:46 | 50.29600 | 8.66783 | 35291 ft | 471 kts | 130° |
| 2026-04-29 09:46 | 50.25153 | 8.74327 | 35289 ft | 473 kts | 131° |
| 2026-04-29 09:47 | 50.20655 | 8.81855 | 35287 ft | 474 kts | 131° |
| 2026-04-29 09:47 | 50.16133 | 8.89361 | 35276 ft | 475 kts | 131° |
| 2026-04-29 09:48 | 50.11605 | 8.96849 | 35280 ft | 474 kts | 131° |
| 2026-04-29 09:48 | 50.07082 | 9.04312 | 35280 ft | 473 kts | 131° |
| 2026-04-29 09:49 | 50.02562 | 9.11751 | 35278 ft | 473 kts | 132° |
| 2026-04-29 09:49 | 49.98038 | 9.19173 | 35281 ft | 472 kts | 133° |
| 2026-04-29 09:50 | 49.93514 | 9.26575 | 35262 ft | 473 kts | 133° |
| 2026-04-29 09:50 | 49.88974 | 9.33981 | 35265 ft | 474 kts | 133° |
| 2026-04-29 09:51 | 49.84425 | 9.41379 | 35273 ft | 474 kts | 133° |
| 2026-04-29 09:51 | 49.79860 | 9.48782 | 35251 ft | 476 kts | 134° |
| 2026-04-29 09:52 | 49.75278 | 9.56191 | 35272 ft | 477 kts | 134° |
| 2026-04-29 09:52 | 49.70676 | 9.63610 | 35260 ft | 479 kts | 134° |
| 2026-04-29 09:53 | 49.66048 | 9.71050 | 35265 ft | 481 kts | 134° |
| 2026-04-29 09:53 | 49.61402 | 9.78497 | 35260 ft | 482 kts | 134° |
| 2026-04-29 09:54 | 49.56739 | 9.85950 | 35262 ft | 483 kts | 134° |
| 2026-04-29 09:54 | 49.52070 | 9.93389 | 35253 ft | 484 kts | 135° |
| 2026-04-29 09:55 | 49.47383 | 10.00836 | 35271 ft | 484 kts | 135° |
| 2026-04-29 09:55 | 49.42687 | 10.08275 | 35268 ft | 484 kts | 135° |
| 2026-04-29 09:56 | 49.37988 | 10.15698 | 35267 ft | 485 kts | 135° |
| 2026-04-29 09:56 | 49.33283 | 10.23110 | 35265 ft | 485 kts | 135° |
| 2026-04-29 09:57 | 49.28575 | 10.30506 | 35249 ft | 485 kts | 135° |
| 2026-04-29 09:57 | 49.23892 | 10.37842 | 35262 ft | 485 kts | 135° |
| 2026-04-29 09:58 | 49.19104 | 10.45105 | 35255 ft | 484 kts | 137° |
| 2026-04-29 09:58 | 49.14256 | 10.52254 | 35262 ft | 485 kts | 137° |
| 2026-04-29 09:59 | 49.09404 | 10.59407 | 35261 ft | 485 kts | 137° |
| 2026-04-29 09:59 | 49.04559 | 10.66563 | 35262 ft | 485 kts | 137° |
| 2026-04-29 10:00 | 48.99705 | 10.73724 | 35236 ft | 486 kts | 137° |
| 2026-04-29 10:00 | 48.94852 | 10.80864 | 35252 ft | 486 kts | 137° |
| 2026-04-29 10:01 | 48.89980 | 10.88009 | 35245 ft | 487 kts | 137° |
| 2026-04-29 10:01 | 48.85098 | 10.95148 | 35234 ft | 487 kts | 137° |
| 2026-04-29 10:02 | 48.80207 | 11.02280 | 35247 ft | 488 kts | 138° |
| 2026-04-29 10:02 | 48.75298 | 11.09419 | 35220 ft | 489 kts | 138° |
| 2026-04-29 10:03 | 48.70381 | 11.16550 | 35236 ft | 490 kts | 138° |
| 2026-04-29 10:03 | 48.65450 | 11.23682 | 35245 ft | 491 kts | 138° |
| 2026-04-29 10:04 | 48.60698 | 11.31116 | 35243 ft | 493 kts | 134° |
| 2026-04-29 10:04 | 48.56108 | 11.38841 | 35248 ft | 494 kts | 133° |
| 2026-04-29 10:05 | 48.51515 | 11.46569 | 35216 ft | 495 kts | 134° |
| 2026-04-29 10:05 | 48.46891 | 11.54251 | 35236 ft | 495 kts | 134° |
| 2026-04-29 10:06 | 48.42244 | 11.61910 | 35241 ft | 495 kts | 134° |
| 2026-04-29 10:06 | 48.37584 | 11.69559 | 35255 ft | 496 kts | 135° |
| 2026-04-29 10:07 | 48.32946 | 11.77157 | 35244 ft | 496 kts | 135° |
| 2026-04-29 10:07 | 48.28240 | 11.84843 | 35246 ft | 497 kts | 135° |
| 2026-04-29 10:08 | 48.23591 | 11.92417 | 35229 ft | 497 kts | 135° |
| 2026-04-29 10:08 | 48.18901 | 12.00034 | 35240 ft | 497 kts | 135° |
| 2026-04-29 10:09 | 48.14207 | 12.07637 | 35229 ft | 497 kts | 135° |
| 2026-04-29 10:09 | 48.09501 | 12.15236 | 35221 ft | 497 kts | 135° |
| 2026-04-29 10:10 | 48.04794 | 12.22816 | 35215 ft | 497 kts | 135° |
| 2026-04-29 10:10 | 48.00079 | 12.30386 | 35222 ft | 497 kts | 135° |
| 2026-04-29 10:11 | 47.95361 | 12.37939 | 35220 ft | 497 kts | 135° |
| 2026-04-29 10:11 | 47.90634 | 12.45485 | 35214 ft | 498 kts | 135° |
| 2026-04-29 10:12 | 47.86667 | 12.51800 | 35212 ft | 498 kts | 135° |
| 2026-04-29 10:12 | 47.81925 | 12.59332 | 35213 ft | 499 kts | 135° |
| 2026-04-29 10:13 | 47.77170 | 12.66862 | 35211 ft | 500 kts | 135° |
| 2026-04-29 10:13 | 47.72403 | 12.74392 | 35186 ft | 501 kts | 135° |
| 2026-04-29 10:14 | 47.67621 | 12.81911 | 35198 ft | 500 kts | 136° |
| 2026-04-29 10:14 | 47.62725 | 12.89216 | 35199 ft | 500 kts | 138° |
| 2026-04-29 10:15 | 47.57805 | 12.96400 | 35207 ft | 500 kts | 138° |
| 2026-04-29 10:15 | 47.52878 | 13.03630 | 35194 ft | 499 kts | 137° |
| 2026-04-29 10:16 | 47.47952 | 13.10858 | 35182 ft | 499 kts | 138° |
| 2026-04-29 10:16 | 47.43016 | 13.18090 | 35149 ft | 499 kts | 138° |
| 2026-04-29 10:17 | 47.38083 | 13.25302 | 35171 ft | 499 kts | 138° |
| 2026-04-29 10:17 | 47.33147 | 13.32528 | 35165 ft | 500 kts | 136° |
| 2026-04-29 10:18 | 47.28866 | 13.40659 | 35172 ft | 504 kts | 127° |
| 2026-04-29 10:18 | 47.24864 | 13.49150 | 35152 ft | 505 kts | 126° |
| 2026-04-29 10:19 | 47.20830 | 13.57624 | 35164 ft | 505 kts | 127° |
| 2026-04-29 10:19 | 47.16748 | 13.66033 | 35169 ft | 505 kts | 127° |
| 2026-04-29 10:20 | 47.12643 | 13.74408 | 35178 ft | 505 kts | 127° |
| 2026-04-29 10:20 | 47.08563 | 13.82703 | 35169 ft | 505 kts | 127° |
| 2026-04-29 10:21 | 47.04453 | 13.91041 | 35174 ft | 504 kts | 128° |
| 2026-04-29 10:21 | 47.00334 | 13.99376 | 35182 ft | 505 kts | 128° |
| 2026-04-29 10:22 | 46.96211 | 14.07696 | 35196 ft | 505 kts | 128° |
| 2026-04-29 10:22 | 46.92079 | 14.16010 | 35175 ft | 505 kts | 128° |
| 2026-04-29 10:23 | 46.87948 | 14.24298 | 35209 ft | 504 kts | 128° |
| 2026-04-29 10:23 | 46.83809 | 14.32572 | 35205 ft | 504 kts | 128° |
| 2026-04-29 10:24 | 46.79669 | 14.40828 | 35229 ft | 504 kts | 128° |
| 2026-04-29 10:24 | 46.75524 | 14.49066 | 35210 ft | 504 kts | 128° |
| 2026-04-29 10:25 | 46.71379 | 14.57282 | 35217 ft | 502 kts | 128° |
| 2026-04-29 10:25 | 46.67234 | 14.65473 | 35213 ft | 502 kts | 128° |
| 2026-04-29 10:26 | 46.63088 | 14.73643 | 35206 ft | 502 kts | 128° |
| 2026-04-29 10:26 | 46.58933 | 14.81805 | 35223 ft | 502 kts | 129° |
| 2026-04-29 10:27 | 46.52683 | 14.94039 | 35232 ft | 503 kts | 129° |
| 2026-04-29 10:28 | 46.48498 | 15.02202 | 35226 ft | 504 kts | 129° |
| 2026-04-29 10:28 | 46.44333 | 15.10300 | 35238 ft | 505 kts | 129° |
| 2026-04-29 10:29 | 46.40119 | 15.18471 | 35235 ft | 507 kts | 129° |
| 2026-04-29 10:29 | 46.35888 | 15.26653 | 35227 ft | 508 kts | 129° |
| 2026-04-29 10:30 | 46.31645 | 15.34833 | 35232 ft | 509 kts | 129° |
| 2026-04-29 10:30 | 46.27388 | 15.43015 | 35248 ft | 509 kts | 129° |
| 2026-04-29 10:31 | 46.23122 | 15.51193 | 35242 ft | 510 kts | 129° |
| 2026-04-29 10:31 | 46.18846 | 15.59369 | 35239 ft | 510 kts | 129° |
| 2026-04-29 10:32 | 46.14209 | 15.67028 | 35251 ft | 505 kts | 140° |
| 2026-04-29 10:32 | 46.09080 | 15.73948 | 35244 ft | 505 kts | 141° |
| 2026-04-29 10:33 | 46.03934 | 15.80823 | 35231 ft | 504 kts | 140° |
| 2026-04-29 10:33 | 45.98839 | 15.87729 | 35244 ft | 503 kts | 140° |
| 2026-04-29 10:34 | 45.93772 | 15.94640 | 35240 ft | 502 kts | 140° |
| 2026-04-29 10:34 | 45.88739 | 16.01496 | 35239 ft | 502 kts | 140° |
| 2026-04-29 10:35 | 45.83640 | 16.08419 | 35248 ft | 502 kts | 140° |
| 2026-04-29 10:35 | 45.78596 | 16.15244 | 35238 ft | 502 kts | 140° |
| 2026-04-29 10:36 | 45.73510 | 16.22108 | 35234 ft | 502 kts | 140° |
| 2026-04-29 10:36 | 45.68431 | 16.28945 | 35244 ft | 501 kts | 140° |
| 2026-04-29 10:37 | 45.63352 | 16.35764 | 35237 ft | 501 kts | 140° |
| 2026-04-29 10:37 | 45.58267 | 16.42572 | 35235 ft | 501 kts | 140° |
| 2026-04-29 10:38 | 45.53173 | 16.49376 | 35243 ft | 501 kts | 140° |
| 2026-04-29 10:38 | 45.48080 | 16.56160 | 35246 ft | 502 kts | 140° |
| 2026-04-29 10:39 | 45.42971 | 16.62948 | 35238 ft | 502 kts | 140° |
| 2026-04-29 10:39 | 45.37859 | 16.69723 | 35234 ft | 503 kts | 141° |
| 2026-04-29 10:40 | 45.32727 | 16.76506 | 35232 ft | 504 kts | 141° |
| 2026-04-29 10:40 | 45.27599 | 16.83267 | 35234 ft | 504 kts | 141° |
| 2026-04-29 10:41 | 45.22448 | 16.90040 | 35213 ft | 505 kts | 141° |
| 2026-04-29 10:41 | 45.17302 | 16.96791 | 35228 ft | 504 kts | 141° |
| 2026-04-29 10:42 | 45.12146 | 17.03538 | 35216 ft | 504 kts | 141° |
| 2026-04-29 10:42 | 45.06993 | 17.10265 | 35205 ft | 504 kts | 141° |
| 2026-04-29 10:43 | 45.01899 | 17.17080 | 35217 ft | 504 kts | 139° |
| 2026-04-29 10:43 | 44.96892 | 17.24015 | 35209 ft | 504 kts | 139° |
| 2026-04-29 10:44 | 44.91893 | 17.30929 | 35209 ft | 503 kts | 139° |
| 2026-04-29 10:44 | 44.86875 | 17.37811 | 35226 ft | 503 kts | 139° |
| 2026-04-29 10:45 | 44.81882 | 17.44620 | 35188 ft | 503 kts | 139° |
| 2026-04-29 10:45 | 44.76850 | 17.51460 | 35215 ft | 502 kts | 139° |
| 2026-04-29 10:46 | 44.71817 | 17.58286 | 35209 ft | 502 kts | 139° |
| 2026-04-29 10:46 | 44.66785 | 17.65096 | 35204 ft | 502 kts | 139° |
| 2026-04-29 10:47 | 44.61748 | 17.71896 | 35184 ft | 502 kts | 139° |
| 2026-04-29 10:47 | 44.56710 | 17.78680 | 35163 ft | 502 kts | 139° |
| 2026-04-29 10:48 | 44.51677 | 17.85440 | 35169 ft | 501 kts | 139° |
| 2026-04-29 10:48 | 44.46635 | 17.92195 | 35185 ft | 501 kts | 140° |
| 2026-04-29 10:49 | 44.41595 | 17.98930 | 35161 ft | 501 kts | 140° |
| 2026-04-29 10:49 | 44.36549 | 18.05655 | 35166 ft | 502 kts | 140° |
| 2026-04-29 10:50 | 44.31492 | 18.12379 | 35124 ft | 502 kts | 140° |
| 2026-04-29 10:50 | 44.26429 | 18.19094 | 35159 ft | 502 kts | 140° |
| 2026-04-29 10:51 | 44.21361 | 18.25799 | 35144 ft | 502 kts | 140° |
| 2026-04-29 10:51 | 44.16285 | 18.32499 | 35135 ft | 502 kts | 140° |
| 2026-04-29 10:52 | 44.11238 | 18.39143 | 35122 ft | 503 kts | 140° |
| 2026-04-29 10:52 | 44.06125 | 18.45856 | 35097 ft | 502 kts | 140° |
| 2026-04-29 10:53 | 44.01080 | 18.52465 | 35109 ft | 501 kts | 140° |
| 2026-04-29 10:53 | 43.96005 | 18.59098 | 35107 ft | 501 kts | 140° |
| 2026-04-29 10:54 | 43.90929 | 18.65714 | 35117 ft | 500 kts | 140° |
| 2026-04-29 10:54 | 43.85858 | 18.72308 | 35100 ft | 500 kts | 140° |
| 2026-04-29 10:55 | 43.80786 | 18.78888 | 35091 ft | 499 kts | 140° |
| 2026-04-29 10:55 | 43.75717 | 18.85447 | 35097 ft | 499 kts | 140° |
| 2026-04-29 10:56 | 43.70652 | 18.91985 | 35082 ft | 498 kts | 140° |
| 2026-04-29 10:56 | 43.65586 | 18.98510 | 35085 ft | 498 kts | 140° |
| 2026-04-29 10:57 | 43.60551 | 19.04979 | 35089 ft | 498 kts | 140° |
| 2026-04-29 10:57 | 43.55474 | 19.11488 | 35071 ft | 498 kts | 140° |
| 2026-04-29 10:58 | 43.50328 | 19.17848 | 35079 ft | 496 kts | 143° |
| 2026-04-29 10:58 | 43.44999 | 19.23860 | 35101 ft | 495 kts | 144° |
| 2026-04-29 10:59 | 43.39626 | 19.29840 | 35088 ft | 497 kts | 144° |
| 2026-04-29 10:59 | 43.34268 | 19.35859 | 35082 ft | 498 kts | 144° |
| 2026-04-29 11:00 | 43.28914 | 19.41901 | 35067 ft | 497 kts | 143° |
| 2026-04-29 11:00 | 43.23573 | 19.47921 | 35084 ft | 497 kts | 144° |
| 2026-04-29 11:01 | 43.19131 | 19.52914 | 35083 ft | 497 kts | 144° |
| 2026-04-29 11:01 | 43.13790 | 19.58901 | 35079 ft | 497 kts | 144° |
| 2026-04-29 11:02 | 43.08436 | 19.64890 | 35076 ft | 496 kts | 144° |
| 2026-04-29 11:02 | 43.03086 | 19.70859 | 35066 ft | 496 kts | 144° |
| 2026-04-29 11:03 | 42.97734 | 19.76818 | 35079 ft | 496 kts | 144° |
| 2026-04-29 11:03 | 42.92381 | 19.82763 | 35075 ft | 496 kts | 144° |
| 2026-04-29 11:04 | 42.87026 | 19.88698 | 35070 ft | 496 kts | 144° |
| 2026-04-29 11:04 | 42.81662 | 19.94630 | 35069 ft | 496 kts | 144° |
| 2026-04-29 11:05 | 42.76300 | 20.00548 | 35079 ft | 496 kts | 143° |
| 2026-04-29 11:05 | 42.71506 | 20.07330 | 35097 ft | 500 kts | 131° |
| 2026-04-29 11:06 | 42.67143 | 20.14696 | 35078 ft | 500 kts | 130° |
| 2026-04-29 11:06 | 42.62761 | 20.22052 | 35077 ft | 501 kts | 131° |
| 2026-04-29 11:07 | 42.58333 | 20.29364 | 35066 ft | 502 kts | 131° |
| 2026-04-29 11:07 | 42.53892 | 20.36641 | 35072 ft | 500 kts | 131° |
| 2026-04-29 11:08 | 42.49487 | 20.43840 | 35072 ft | 499 kts | 131° |
| 2026-04-29 11:08 | 42.45057 | 20.51068 | 35071 ft | 498 kts | 131° |
| 2026-04-29 11:09 | 42.40636 | 20.58267 | 35086 ft | 497 kts | 131° |
| 2026-04-29 11:09 | 42.36206 | 20.65462 | 35088 ft | 497 kts | 131° |
| 2026-04-29 11:10 | 42.31772 | 20.72645 | 35088 ft | 498 kts | 131° |
| 2026-04-29 11:10 | 42.27333 | 20.79821 | 35090 ft | 498 kts | 131° |
| 2026-04-29 11:11 | 42.22887 | 20.86989 | 35097 ft | 499 kts | 131° |
| 2026-04-29 11:11 | 42.18431 | 20.94159 | 35092 ft | 498 kts | 131° |
| 2026-04-29 11:12 | 42.13970 | 21.01321 | 35086 ft | 499 kts | 131° |
| 2026-04-29 11:12 | 42.09376 | 21.08307 | 35085 ft | 497 kts | 137° |
| 2026-04-29 11:13 | 42.04342 | 21.14681 | 35081 ft | 497 kts | 140° |
| 2026-04-29 11:13 | 41.99247 | 21.20953 | 35062 ft | 496 kts | 140° |
| 2026-04-29 11:14 | 41.94193 | 21.27257 | 35074 ft | 495 kts | 139° |
| 2026-04-29 11:14 | 41.89172 | 21.33578 | 35072 ft | 494 kts | 139° |
| 2026-04-29 11:15 | 41.84162 | 21.39888 | 35091 ft | 493 kts | 139° |
| 2026-04-29 11:15 | 41.79149 | 21.46187 | 35081 ft | 494 kts | 139° |
| 2026-04-29 11:16 | 41.74139 | 21.52463 | 35072 ft | 493 kts | 139° |
| 2026-04-29 11:16 | 41.69125 | 21.58726 | 35060 ft | 492 kts | 139° |
| 2026-04-29 11:17 | 41.64125 | 21.64955 | 35080 ft | 492 kts | 139° |
| 2026-04-29 11:17 | 41.59122 | 21.71181 | 35073 ft | 492 kts | 139° |
| 2026-04-29 11:18 | 41.54103 | 21.77411 | 35061 ft | 492 kts | 139° |
| 2026-04-29 11:18 | 41.49114 | 21.83590 | 35064 ft | 492 kts | 139° |
| 2026-04-29 11:19 | 41.44095 | 21.89792 | 35059 ft | 491 kts | 139° |
| 2026-04-29 11:19 | 41.39081 | 21.95974 | 35080 ft | 491 kts | 139° |
| 2026-04-29 11:20 | 41.34058 | 22.02154 | 35086 ft | 492 kts | 139° |
| 2026-04-29 11:20 | 41.31977 | 22.04711 | 35085 ft | 492 kts | 139° |
| 2026-04-29 12:06 | 41.27661 | 22.10006 | 35072 ft | 493 kts | 139° |
| 2026-04-29 12:07 | 41.22613 | 22.16187 | 35069 ft | 493 kts | 139° |
| 2026-04-29 12:07 | 41.17608 | 22.22302 | 35086 ft | 492 kts | 139° |
| 2026-04-29 12:08 | 41.12449 | 22.28242 | 35079 ft | 490 kts | 143° |
| 2026-04-29 12:08 | 41.07139 | 22.33882 | 35090 ft | 489 kts | 143° |
| 2026-04-29 12:09 | 41.01828 | 22.39499 | 35088 ft | 488 kts | 143° |
| 2026-04-29 12:09 | 40.96538 | 22.45146 | 35092 ft | 487 kts | 143° |
| 2026-04-29 12:10 | 40.91276 | 22.50782 | 35091 ft | 487 kts | 143° |
| 2026-04-29 12:10 | 40.86012 | 22.56411 | 35092 ft | 486 kts | 143° |
| 2026-04-29 12:11 | 40.80751 | 22.62022 | 35095 ft | 486 kts | 143° |
| 2026-04-29 12:11 | 40.75498 | 22.67611 | 35100 ft | 485 kts | 143° |
| 2026-04-29 12:12 | 40.70233 | 22.73200 | 35088 ft | 485 kts | 143° |
| 2026-04-29 12:12 | 40.64977 | 22.78769 | 35101 ft | 485 kts | 143° |
| 2026-04-29 12:13 | 40.59785 | 22.84259 | 35103 ft | 485 kts | 143° |
| 2026-04-29 12:13 | 40.54509 | 22.89826 | 35105 ft | 485 kts | 143° |
| 2026-04-29 12:14 | 40.49242 | 22.95375 | 35106 ft | 485 kts | 143° |
| 2026-04-29 12:14 | 40.44106 | 23.01153 | 35095 ft | 488 kts | 134° |
| 2026-04-29 12:15 | 40.39575 | 23.07786 | 35103 ft | 489 kts | 133° |
| 2026-04-29 12:15 | 40.35086 | 23.14506 | 35107 ft | 489 kts | 133° |
| 2026-04-29 12:16 | 40.30562 | 23.21172 | 35101 ft | 490 kts | 133° |
| 2026-04-29 12:16 | 40.26003 | 23.27805 | 35100 ft | 490 kts | 133° |
| 2026-04-29 12:17 | 40.21463 | 23.34376 | 35098 ft | 490 kts | 133° |
| 2026-04-29 12:17 | 40.16891 | 23.40980 | 35085 ft | 490 kts | 133° |
| 2026-04-29 12:18 | 40.12323 | 23.47570 | 35097 ft | 489 kts | 133° |
| 2026-04-29 12:18 | 40.07763 | 23.54134 | 35102 ft | 488 kts | 133° |
| 2026-04-29 12:19 | 40.03200 | 23.60690 | 35101 ft | 487 kts | 134° |
| 2026-04-29 12:19 | 39.98647 | 23.67215 | 35102 ft | 486 kts | 134° |
| 2026-04-29 12:20 | 39.94095 | 23.73726 | 35103 ft | 486 kts | 134° |
| 2026-04-29 12:20 | 39.89547 | 23.80218 | 35104 ft | 485 kts | 134° |
| 2026-04-29 12:21 | 39.84994 | 23.86703 | 35100 ft | 484 kts | 134° |
| 2026-04-29 12:21 | 39.80445 | 23.93167 | 35111 ft | 484 kts | 134° |
| 2026-04-29 12:22 | 39.75897 | 23.99618 | 35106 ft | 484 kts | 134° |
| 2026-04-29 12:22 | 39.71347 | 24.06057 | 35110 ft | 484 kts | 134° |
| 2026-04-29 12:23 | 39.66791 | 24.12493 | 35109 ft | 484 kts | 134° |
| 2026-04-29 12:23 | 39.62231 | 24.18918 | 35108 ft | 484 kts | 134° |
| 2026-04-29 12:24 | 39.57670 | 24.25334 | 35094 ft | 484 kts | 134° |
| 2026-04-29 12:24 | 39.53101 | 24.31747 | 35106 ft | 484 kts | 134° |
| 2026-04-29 12:25 | 39.48536 | 24.38140 | 35102 ft | 484 kts | 134° |
| 2026-04-29 12:26 | 39.41676 | 24.47724 | 35104 ft | 484 kts | 134° |
| 2026-04-29 12:26 | 39.37134 | 24.54052 | 35101 ft | 483 kts | 134° |
| 2026-04-29 12:27 | 39.32553 | 24.60422 | 35098 ft | 483 kts | 134° |
| 2026-04-29 12:27 | 39.27976 | 24.66774 | 35097 ft | 483 kts | 134° |
| 2026-04-29 12:28 | 39.23400 | 24.73111 | 35111 ft | 482 kts | 134° |
| 2026-04-29 12:28 | 39.18823 | 24.79438 | 35100 ft | 482 kts | 134° |
| 2026-04-29 12:29 | 39.14249 | 24.85749 | 35097 ft | 482 kts | 134° |
| 2026-04-29 12:29 | 39.09659 | 24.92040 | 35103 ft | 481 kts | 136° |
| 2026-04-29 12:30 | 39.04810 | 24.97968 | 35110 ft | 480 kts | 139° |
| 2026-04-29 12:30 | 38.99840 | 25.03722 | 35101 ft | 480 kts | 140° |
| 2026-04-29 12:31 | 38.94884 | 25.09491 | 35095 ft | 480 kts | 139° |
| 2026-04-29 12:31 | 38.89947 | 25.15292 | 35095 ft | 481 kts | 139° |
| 2026-04-29 12:32 | 38.85016 | 25.21098 | 35103 ft | 481 kts | 139° |
| 2026-04-29 12:32 | 38.80086 | 25.26892 | 35088 ft | 481 kts | 139° |
| 2026-04-29 12:33 | 38.75177 | 25.32647 | 35075 ft | 481 kts | 139° |
| 2026-04-29 12:33 | 38.70232 | 25.38431 | 35094 ft | 481 kts | 139° |
| 2026-04-29 12:34 | 38.65287 | 25.44204 | 35093 ft | 481 kts | 139° |
| 2026-04-29 12:34 | 38.60341 | 25.49967 | 35086 ft | 481 kts | 139° |
| 2026-04-29 12:35 | 38.55393 | 25.55721 | 35085 ft | 481 kts | 139° |
| 2026-04-29 12:35 | 38.51248 | 25.60533 | 35084 ft | 481 kts | 139° |
| 2026-04-29 12:36 | 38.46298 | 25.66269 | 35086 ft | 480 kts | 139° |
| 2026-04-29 12:36 | 38.41350 | 25.71992 | 35083 ft | 480 kts | 139° |
| 2026-04-29 12:37 | 38.36402 | 25.77704 | 35078 ft | 480 kts | 139° |
| 2026-04-29 12:37 | 38.31456 | 25.83406 | 35077 ft | 479 kts | 139° |
| 2026-04-29 12:38 | 38.26479 | 25.88943 | 35067 ft | 477 kts | 146° |
| 2026-04-29 12:38 | 38.20663 | 25.92844 | 35073 ft | 471 kts | 163° |
| 2026-04-29 12:38 | 38.17566 | 25.94217 | 34933 ft | 473 kts | 163° |
| 2026-04-29 12:39 | 38.14432 | 25.95582 | 34364 ft | 477 kts | 163° |
| 2026-04-29 12:39 | 38.11298 | 25.96955 | 33712 ft | 476 kts | 163° |
| 2026-04-29 12:39 | 38.08173 | 25.98342 | 33032 ft | 475 kts | 162° |
| 2026-04-29 12:39 | 38.05058 | 25.99740 | 32347 ft | 475 kts | 162° |
| 2026-04-29 12:40 | 38.01948 | 26.01146 | 31661 ft | 475 kts | 162° |
| 2026-04-29 12:40 | 37.98833 | 26.02557 | 30955 ft | 475 kts | 162° |
| 2026-04-29 12:40 | 37.95721 | 26.03967 | 30244 ft | 475 kts | 162° |
| 2026-04-29 12:40 | 37.92614 | 26.05373 | 29600 ft | 472 kts | 162° |
| 2026-04-29 12:41 | 37.89536 | 26.06765 | 29057 ft | 466 kts | 162° |
| 2026-04-29 12:41 | 37.86499 | 26.08135 | 28536 ft | 460 kts | 162° |
| 2026-04-29 12:41 | 37.83500 | 26.09487 | 28019 ft | 455 kts | 162° |
| 2026-04-29 12:41 | 37.80534 | 26.10822 | 27494 ft | 450 kts | 162° |
| 2026-04-29 12:42 | 37.77592 | 26.12145 | 26983 ft | 445 kts | 162° |
| 2026-04-29 12:42 | 37.74689 | 26.13450 | 26476 ft | 441 kts | 162° |
| 2026-04-29 12:42 | 37.71817 | 26.14743 | 26188 ft | 432 kts | 162° |
| 2026-04-29 12:42 | 37.69004 | 26.16013 | 25843 ft | 428 kts | 162° |
| 2026-04-29 12:43 | 37.66213 | 26.17273 | 25369 ft | 425 kts | 162° |
| 2026-04-29 12:43 | 37.63440 | 26.18523 | 24899 ft | 422 kts | 162° |
| 2026-04-29 12:43 | 37.60678 | 26.19767 | 24422 ft | 420 kts | 162° |
| 2026-04-29 12:43 | 37.57931 | 26.21007 | 23939 ft | 418 kts | 161° |
| 2026-04-29 12:44 | 37.55202 | 26.22248 | 23405 ft | 417 kts | 162° |
| 2026-04-29 12:44 | 37.52476 | 26.23470 | 22852 ft | 414 kts | 162° |
| 2026-04-29 12:44 | 37.49771 | 26.24679 | 22347 ft | 412 kts | 162° |
| 2026-04-29 12:44 | 37.47082 | 26.25881 | 21844 ft | 409 kts | 162° |
| 2026-04-29 12:45 | 37.44414 | 26.27074 | 21359 ft | 406 kts | 162° |
| 2026-04-29 12:45 | 37.41763 | 26.28261 | 20885 ft | 403 kts | 162° |
| 2026-04-29 12:45 | 37.39131 | 26.29439 | 20413 ft | 400 kts | 162° |
| 2026-04-29 12:45 | 37.36513 | 26.30610 | 19945 ft | 398 kts | 162° |
| 2026-04-29 12:46 | 37.33912 | 26.31772 | 19478 ft | 396 kts | 162° |
| 2026-04-29 12:46 | 37.31322 | 26.32929 | 19001 ft | 394 kts | 162° |
| 2026-04-29 12:46 | 37.28646 | 26.34124 | 18515 ft | 393 kts | 162° |
| 2026-04-29 12:46 | 37.12405 | 26.41362 | 15415 ft | 379 kts | 162° |
| 2026-04-29 12:47 | 36.92825 | 26.49943 | 11751 ft | 366 kts | 162° |
| 2026-04-29 12:47 | 36.83125 | 26.57062 | 10076 ft | 346 kts | 110° |
| 2026-04-29 12:47 | 36.82252 | 26.62743 | 9620 ft | 327 kts | 86° |
| 2026-04-29 12:47 | 36.82585 | 26.68158 | 9201 ft | 313 kts | 98° |
| 2026-04-29 12:48 | 36.80416 | 26.72674 | 8998 ft | 299 kts | 130° |
| 2026-04-29 12:48 | 36.72988 | 26.82640 | 7787 ft | 279 kts | 130° |
| 2026-04-29 12:48 | 36.68064 | 26.89992 | 6821 ft | 270 kts | 110° |
| 2026-04-29 12:48 | 36.67396 | 26.92178 | 6594 ft | 270 kts | 108° |
| 2026-04-29 12:49 | 36.66663 | 26.94340 | 6361 ft | 271 kts | 111° |
| 2026-04-29 12:49 | 36.65860 | 26.96479 | 6102 ft | 273 kts | 112° |
| 2026-04-29 12:49 | 36.64665 | 26.99522 | 5741 ft | 273 kts | 113° |
| 2026-04-29 12:49 | 36.61294 | 27.07925 | 4761 ft | 268 kts | 114° |
| 2026-04-29 12:50 | 36.59637 | 27.14778 | 4180 ft | 225 kts | 59° |
| 2026-04-29 12:50 | 36.60309 | 27.16451 | 4189 ft | 212 kts | 64° |
| 2026-04-29 12:50 | 36.60819 | 27.18149 | 4216 ft | 209 kts | 66° |
| 2026-04-29 12:50 | 36.60889 | 27.18377 | 4195 ft | 210 kts | 67° |
| 2026-04-29 12:51 | 36.61546 | 27.20029 | 3901 ft | 215 kts | 47° |
| 2026-04-29 12:51 | 36.62765 | 27.20981 | 3694 ft | 204 kts | 12° |
| 2026-04-29 12:51 | 36.64137 | 27.20911 | 3463 ft | 196 kts | 342° |
| 2026-04-29 12:51 | 36.65335 | 27.20132 | 3291 ft | 195 kts | 329° |
| 2026-04-29 12:52 | 36.66486 | 27.19227 | 3078 ft | 196 kts | 329° |
| 2026-04-29 12:52 | 36.67624 | 27.18332 | 2846 ft | 191 kts | 329° |
| 2026-04-29 12:52 | 36.68747 | 27.17447 | 2618 ft | 192 kts | 329° |
| 2026-04-29 12:52 | 36.69867 | 27.16569 | 2366 ft | 187 kts | 331° |
| 2026-04-29 12:53 | 36.70953 | 27.15723 | 2121 ft | 182 kts | 330° |
| 2026-04-29 12:53 | 36.72010 | 27.14902 | 1879 ft | 176 kts | 330° |
| 2026-04-29 12:53 | 36.73017 | 27.14116 | 1671 ft | 164 kts | 330° |
| 2026-04-29 12:53 | 36.73945 | 27.13399 | 1486 ft | 151 kts | 330° |
| 2026-04-29 12:54 | 36.74802 | 27.12743 | 1359 ft | 140 kts | 330° |
| 2026-04-29 12:54 | 36.75575 | 27.12136 | 1154 ft | 126 kts | 330° |
| 2026-04-29 12:54 | 36.76346 | 27.11553 | 1017 ft | 136 kts | 331° |
| 2026-04-29 12:54 | 36.77143 | 27.10923 | 819 ft | 135 kts | 330° |
| 2026-04-29 12:55 | 36.77948 | 27.10279 | 582 ft | 139 kts | 332° |
| 2026-04-29 12:55 | 36.78769 | 27.09651 | 402 ft | 136 kts | 330° |
| 2026-04-29 12:55 | 36.79451 | 27.09119 | 412 ft | 87 kts | 328° |
| 2026-04-29 12:55 | 36.79884 | 27.08783 | 417 ft | 65 kts | 328° |
| 2026-04-29 12:56 | 36.80205 | 27.08532 | 415 ft | 38 kts | 328° |
| 2026-04-29 12:56 | 36.80314 | 27.08452 | 419 ft | 14 kts | 346° |
| 2026-04-29 12:56 | 36.80349 | 27.08538 | 414 ft | 14 kts | 103° |
| 2026-04-29 12:56 | 36.80327 | 27.08650 | 417 ft | 13 kts | 105° |
| 2026-04-29 12:57 | 36.80284 | 27.08710 | 416 ft | 7 kts | 148° |
| 2026-04-29 12:57 | 36.80252 | 27.08734 | 419 ft | 5 kts | 148° |
| 2026-04-29 12:57 | 36.80226 | 27.08755 | 419 ft | 4 kts | 148° |
| 2026-04-29 12:57 | 36.80199 | 27.08776 | 416 ft | 5 kts | 147° |
| 2026-04-29 12:58 | 36.80143 | 27.08821 | 418 ft | 14 kts | 147° |
| 2026-04-29 12:58 | 36.80123 | 27.08884 | 412 ft | 8 kts | 55° |
| 2026-04-29 12:58 | 36.80142 | 27.08921 | 415 ft | 0 kts | 57° |